Terminal Aerodrome Forecast
Issued by NWS Sterling, VA

Current Version | Previous Version | Graphics & Text | Print | Product List | Glossary On
Versions: 1 2 3 4 5 6 7 8 9 10 11 12 13 14 15 16 17 18 19 20 21 22 23 24 25 26 27
775
FTUS41 KLWX 191426 AAA
TAFIAD
TAF AMD
KIAD 191426Z 1914/2018 32005KT P6SM BKN030 BKN250
     FM191800 29006KT P6SM SCT030 BKN200
     FM192200 00000KT P6SM FEW030 SCT250
     FM200900 VRB03KT P6SM BKN035 OVC080
     FM201300 14004KT 2SM -RA BKN010 OVC025
     FM201600 15005KT 1SM -RA BKN003 OVC010=

USA.gov is the U.S. government's official web portal to all federal, state and local government web resources and services.